createdAt,value
2018-09-17T00:01:32.553Z,101297.78
2018-09-17T00:04:00.750Z,101295.27
2018-09-17T00:06:28.998Z,101303.89
2018-09-17T00:08:57.214Z,101292.42
2018-09-17T00:11:25.437Z,101296.86
2018-09-17T00:13:53.654Z,101299.05
2018-09-17T00:16:21.858Z,101297.53
2018-09-17T00:18:50.073Z,101292.69
2018-09-17T00:21:18.273Z,101297.36
2018-09-17T00:23:46.499Z,101292.24
2018-09-17T00:26:14.821Z,101301.27
2018-09-17T00:28:43.053Z,101305.98
2018-09-17T00:31:11.261Z,101301.14
2018-09-17T00:33:39.474Z,101304.98
2018-09-17T00:36:07.684Z,101305.43
2018-09-17T00:38:36.032Z,101310.00
2018-09-17T00:41:04.273Z,101305.07
2018-09-17T00:43:32.495Z,101309.75
2018-09-17T00:46:00.721Z,101305.60
2018-09-17T00:48:28.935Z,101306.65
2018-09-17T00:50:57.398Z,101308.48
2018-09-17T00:53:25.606Z,101300.59
2018-09-17T00:55:53.818Z,101301.86
2018-09-17T00:58:22.034Z,101307.94
2018-09-17T01:00:50.458Z,101317.53
2018-09-17T01:03:18.708Z,101313.56
2018-09-17T01:05:46.942Z,101310.53
2018-09-17T01:08:15.146Z,101309.93
2018-09-17T01:10:43.394Z,101318.72
2018-09-17T01:13:11.627Z,101314.19
2018-09-17T01:15:39.849Z,101317.08
2018-09-17T01:18:08.075Z,101315.36
2018-09-17T01:20:36.337Z,101325.70
2018-09-17T01:23:04.547Z,101322.67
2018-09-17T01:25:32.787Z,101324.58
2018-09-17T01:28:01.018Z,101330.46
2018-09-17T01:30:29.248Z,101332.23
2018-09-17T01:32:57.441Z,101331.55
2018-09-17T01:35:25.640Z,101332.88
2018-09-17T01:37:53.882Z,101334.71
2018-09-17T01:40:22.077Z,101339.05
2018-09-17T01:42:50.281Z,101343.41
2018-09-17T01:45:18.514Z,101340.73
2018-09-17T01:47:46.725Z,101341.95
2018-09-17T01:50:14.938Z,101333.73
2018-09-17T01:52:43.148Z,101340.81
2018-09-17T01:55:11.400Z,101342.48
2018-09-17T01:57:39.610Z,101342.63
2018-09-17T02:00:07.853Z,101346.52
2018-09-17T02:02:36.061Z,101344.79
2018-09-17T02:05:04.305Z,101346.97
2018-09-17T02:07:32.514Z,101348.22
2018-09-17T02:10:00.813Z,101343.48
2018-09-17T02:12:28.957Z,101343.53
2018-09-17T02:14:57.179Z,101349.55
2018-09-17T02:17:25.430Z,101358.34
2018-09-17T02:19:53.702Z,101347.43
2018-09-17T02:22:21.927Z,101350.57
2018-09-17T02:24:50.166Z,101343.20
2018-09-17T02:27:18.402Z,101334.07
2018-09-17T02:29:46.633Z,101328.06
2018-09-17T02:32:14.833Z,101326.33
2018-09-17T02:34:43.061Z,101325.53
2018-09-17T02:37:11.274Z,101329.95
2018-09-17T02:39:39.535Z,101339.05
2018-09-17T02:42:08.066Z,101339.48
2018-09-17T02:44:36.558Z,101340.37
2018-09-17T02:47:05.110Z,101336.98
2018-09-17T02:49:33.337Z,101333.48
2018-09-17T02:52:01.554Z,101330.40
2018-09-17T02:54:29.759Z,101323.84
2018-09-17T02:56:57.973Z,101323.91
2018-09-17T02:59:26.214Z,101318.34
2018-09-17T03:01:54.422Z,101315.73
2018-09-17T03:04:22.634Z,101316.62
2018-09-17T03:06:50.850Z,101318.30
2018-09-17T03:09:19.091Z,101327.05
2018-09-17T03:11:47.738Z,101325.69
2018-09-17T03:14:16.009Z,101325.72
2018-09-17T03:16:55.586Z,101329.67
2018-09-17T03:19:23.869Z,101331.83
2018-09-17T03:21:52.094Z,101328.39
2018-09-17T03:24:20.332Z,101326.24
2018-09-17T03:26:48.593Z,101335.39
2018-09-17T03:29:16.819Z,101327.15
2018-09-17T03:31:45.027Z,101330.16
2018-09-17T03:34:13.310Z,101334.02
2018-09-17T03:36:41.523Z,101340.58
2018-09-17T03:39:09.725Z,101335.36
2018-09-17T03:41:37.949Z,101332.75
2018-09-17T03:44:06.189Z,101330.98
2018-09-17T03:46:34.406Z,101334.45
2018-09-17T03:49:02.613Z,101338.80
2018-09-17T03:51:30.845Z,101337.11
2018-09-17T03:53:59.053Z,101337.08
2018-09-17T03:56:27.267Z,101333.23
2018-09-17T03:58:55.469Z,101330.16
2018-09-17T04:01:23.681Z,101344.59
2018-09-17T04:03:51.921Z,101354.55
2018-09-17T04:06:20.141Z,101354.10
2018-09-17T04:08:48.369Z,101345.84
2018-09-17T04:11:16.577Z,101342.39
2018-09-17T04:13:44.810Z,101345.40
2018-09-17T04:16:13.060Z,101341.45
2018-09-17T04:18:41.266Z,101345.33
2018-09-17T04:21:09.542Z,101339.27
2018-09-17T04:23:38.554Z,101347.97
2018-09-17T04:26:09.201Z,101342.78
2018-09-17T04:28:37.941Z,101344.50
2018-09-17T04:31:06.297Z,101343.61
2018-09-17T04:33:36.541Z,101342.75
2018-09-17T04:36:04.805Z,101345.36
2018-09-17T04:38:33.079Z,101352.79
2018-09-17T04:41:01.293Z,101346.24
2018-09-17T04:43:29.556Z,101340.22
2018-09-17T04:45:57.773Z,101349.31
2018-09-17T04:48:26.017Z,101342.37
2018-09-17T04:50:54.221Z,101342.38
2018-09-17T04:53:22.473Z,101337.63
2018-09-17T04:55:50.713Z,101346.30
2018-09-17T04:58:18.949Z,101356.77
2018-09-17T05:00:47.179Z,101365.86
2018-09-17T05:03:15.433Z,101368.45
2018-09-17T05:05:43.654Z,101361.06
2018-09-17T05:08:11.874Z,101360.66
2018-09-17T05:10:40.138Z,101361.48
2018-09-17T05:13:08.405Z,101363.25
2018-09-17T05:15:36.589Z,101362.82
2018-09-17T05:18:04.813Z,101366.71
2018-09-17T05:20:33.071Z,101368.48
2018-09-17T05:23:01.283Z,101355.41
2018-09-17T05:25:29.622Z,101359.34
2018-09-17T05:27:57.862Z,101367.16
2018-09-17T05:30:26.078Z,101363.67
2018-09-17T05:32:54.311Z,101357.60
2018-09-17T05:35:22.525Z,101361.11
2018-09-17T05:37:50.806Z,101358.50
2018-09-17T05:40:19.118Z,101355.89
2018-09-17T05:42:47.396Z,101358.95
2018-09-17T05:45:15.623Z,101363.27
2018-09-17T05:47:43.832Z,101364.14
2018-09-17T05:50:12.071Z,101367.18
2018-09-17T05:52:40.268Z,101359.78
2018-09-17T05:55:08.529Z,101371.08
2018-09-17T05:57:36.741Z,101374.12
2018-09-17T06:00:06.311Z,101368.50
2018-09-17T06:02:34.531Z,101366.31
2018-09-17T06:05:02.798Z,101360.64
2018-09-17T06:07:31.045Z,101352.41
2018-09-17T06:09:59.314Z,101360.19
2018-09-17T06:12:27.529Z,101355.39
2018-09-17T06:14:55.766Z,101361.94
2018-09-17T06:17:24.026Z,101363.63
2018-09-17T06:19:52.197Z,101358.42
2018-09-17T06:22:20.410Z,101352.30
2018-09-17T06:24:48.638Z,101362.80
2018-09-17T06:27:16.845Z,101362.78
2018-09-17T06:29:45.078Z,101361.91
2018-09-17T06:32:13.315Z,101365.42
2018-09-17T06:34:41.523Z,101366.71
2018-09-17T06:37:09.758Z,101366.70
2018-09-17T06:39:37.965Z,101362.72
2018-09-17T06:42:06.192Z,101366.28
2018-09-17T06:44:34.408Z,101367.01
2018-09-17T06:47:02.633Z,101365.69
2018-09-17T06:49:30.858Z,101356.98
2018-09-17T06:51:59.086Z,101356.81
2018-09-17T06:54:27.303Z,101361.91
2018-09-17T06:56:55.556Z,101359.68
2018-09-17T06:59:23.754Z,101366.58
2018-09-17T07:01:51.998Z,101365.98
2018-09-17T07:04:20.228Z,101372.03
2018-09-17T07:06:48.477Z,101380.39
2018-09-17T07:09:16.689Z,101372.40
2018-09-17T07:11:44.941Z,101375.73
2018-09-17T07:14:13.261Z,101374.80
2018-09-17T07:16:41.503Z,101377.34
2018-09-17T07:19:09.740Z,101377.59
2018-09-17T07:21:37.939Z,101376.05
2018-09-17T07:24:06.316Z,101377.30
2018-09-17T07:26:35.613Z,101379.30
2018-09-17T07:29:03.977Z,101373.63
2018-09-17T07:31:32.199Z,101373.71
2018-09-17T07:34:01.470Z,101375.39
2018-09-17T07:36:29.887Z,101374.70
2018-09-17T07:38:58.035Z,101384.47
2018-09-17T07:41:26.336Z,101377.89
2018-09-17T07:43:54.560Z,101378.23
2018-09-17T07:46:23.870Z,101375.56
2018-09-17T07:48:52.082Z,101385.74
2018-09-17T07:51:21.344Z,101385.77
2018-09-17T07:53:49.646Z,101380.33
2018-09-17T07:56:17.894Z,101385.53
2018-09-17T07:58:46.228Z,101380.89
2018-09-17T08:01:14.405Z,101380.26
2018-09-17T08:03:42.639Z,101382.09
2018-09-17T08:06:11.657Z,101372.05
2018-09-17T08:08:39.869Z,101374.66
2018-09-17T08:11:08.107Z,101379.70
2018-09-17T08:13:36.414Z,101363.59
2018-09-17T08:16:04.666Z,101374.03
2018-09-17T08:18:32.904Z,101364.14
2018-09-17T08:21:01.133Z,101358.95
2018-09-17T08:23:30.071Z,101352.89
2018-09-17T08:25:58.283Z,101355.18
2018-09-17T08:28:26.498Z,101354.23
2018-09-17T08:30:54.779Z,101354.56
2018-09-17T08:33:22.994Z,101354.62
2018-09-17T08:35:51.275Z,101353.80
2018-09-17T08:38:19.502Z,101339.97
2018-09-17T08:40:47.771Z,101344.88
2018-09-17T08:43:17.020Z,101341.06
2018-09-17T08:45:46.266Z,101339.92
2018-09-17T08:48:14.482Z,101340.52
2018-09-17T08:50:42.717Z,101345.78
2018-09-17T08:53:11.024Z,101346.10
2018-09-17T08:55:45.108Z,101342.50
2018-09-17T08:58:18.742Z,101349.78
2018-09-17T09:00:52.126Z,101352.69
2018-09-17T09:03:25.613Z,101348.86
2018-09-17T09:05:59.231Z,101348.52
2018-09-17T09:08:27.447Z,101351.78
2018-09-17T09:11:00.873Z,101338.36
2018-09-17T09:13:49.677Z,101338.30
2018-09-17T09:16:17.951Z,101333.46
2018-09-17T09:18:46.181Z,101328.25
2018-09-17T09:21:14.394Z,101332.00
2018-09-17T09:23:42.709Z,101315.95
2018-09-17T09:26:10.965Z,101314.97
2018-09-17T09:28:39.190Z,101320.49
2018-09-17T09:31:07.450Z,101312.67
2018-09-17T09:33:35.678Z,101306.24
2018-09-17T09:36:03.932Z,101302.19
2018-09-17T09:38:32.188Z,101298.13
2018-09-17T09:41:00.390Z,101299.20
2018-09-17T09:43:28.757Z,101294.98
2018-09-17T09:45:56.989Z,101292.50
2018-09-17T09:48:25.206Z,101292.16
2018-09-17T09:50:53.462Z,101288.95
2018-09-17T09:53:21.667Z,101286.38
2018-09-17T09:55:49.903Z,101282.05
2018-09-17T09:58:18.139Z,101286.89
2018-09-17T10:00:51.754Z,101283.23
2018-09-17T10:03:26.885Z,101271.63
2018-09-17T10:05:55.146Z,101266.52
2018-09-17T10:08:23.421Z,101273.58
2018-09-17T10:10:57.046Z,101259.26
2018-09-17T10:13:30.553Z,101249.56
2018-09-17T10:15:58.911Z,101254.98
2018-09-17T10:18:32.493Z,101247.56
2018-09-17T10:21:00.709Z,101249.16
2018-09-17T10:23:29.002Z,101243.39
2018-09-17T10:25:57.221Z,101239.50
2018-09-17T10:28:25.439Z,101248.45
2018-09-17T10:30:53.781Z,101242.86
2018-09-17T10:33:23.081Z,101239.33
2018-09-17T10:35:51.343Z,101238.41
2018-09-17T10:38:19.581Z,101236.97
2018-09-17T10:40:47.818Z,101235.05
2018-09-17T10:43:16.135Z,101227.02
2018-09-17T10:45:45.450Z,101223.61
2018-09-17T10:48:13.732Z,101224.66
2018-09-17T10:50:41.973Z,101212.98
2018-09-17T10:53:10.214Z,101210.53
2018-09-17T10:55:38.457Z,101208.03
2018-09-17T10:58:06.845Z,101203.55
2018-09-17T11:00:35.065Z,101206.80
2018-09-17T11:03:03.387Z,101202.01
2018-09-17T11:05:31.672Z,101207.11
2018-09-17T11:08:00.951Z,101194.11
2018-09-17T11:10:29.275Z,101195.92
2018-09-17T11:12:57.514Z,101193.16
2018-09-17T11:15:30.834Z,101185.53
2018-09-17T11:17:59.053Z,101186.61
2018-09-17T11:20:27.386Z,101184.65
2018-09-17T11:22:55.623Z,101183.24
2018-09-17T11:25:23.850Z,101181.67
2018-09-17T11:27:52.089Z,101179.70
2018-09-17T11:30:20.398Z,101177.15
2018-09-17T11:32:49.334Z,101181.47
2018-09-17T11:35:17.565Z,101179.72
2018-09-17T11:37:46.077Z,101175.99
2018-09-17T11:40:14.325Z,101173.08
2018-09-17T11:42:42.624Z,101171.28
2018-09-17T11:45:10.863Z,101165.25
2018-09-17T11:47:39.115Z,101156.37
2018-09-17T11:50:07.388Z,101155.34
2018-09-17T11:52:35.677Z,101160.27
2018-09-17T11:55:04.282Z,101153.53
2018-09-17T11:57:32.515Z,101156.20
2018-09-17T12:00:00.819Z,101146.71
2018-09-17T12:02:33.744Z,101149.64
2018-09-17T12:05:08.805Z,101149.52
2018-09-17T12:07:41.944Z,101140.45
2018-09-17T12:10:10.972Z,101135.23
2018-09-17T12:12:39.666Z,101138.65
2018-09-17T12:15:08.417Z,101128.30
2018-09-17T12:17:36.971Z,101128.01
2018-09-17T12:20:05.331Z,101130.34
2018-09-17T12:22:33.545Z,101121.52
2018-09-17T12:25:01.767Z,101122.50
2018-09-17T12:27:29.999Z,101119.73
2018-09-17T12:29:58.230Z,101114.69
2018-09-17T12:32:26.459Z,101109.92
2018-09-17T12:34:54.766Z,101111.47
2018-09-17T12:37:22.993Z,101110.70
2018-09-17T12:39:51.227Z,101101.02
2018-09-17T12:42:19.462Z,101106.92
2018-09-17T12:44:47.678Z,101100.53
2018-09-17T12:47:15.918Z,101094.80
2018-09-17T12:49:44.147Z,101091.58
2018-09-17T12:52:12.365Z,101088.42
2018-09-17T12:54:40.598Z,101080.89
2018-09-17T12:57:08.860Z,101075.77
2018-09-17T12:59:37.032Z,101078.45
2018-09-17T13:02:05.237Z,101070.42
2018-09-17T13:04:33.461Z,101075.43
2018-09-17T13:07:01.680Z,101068.63
2018-09-17T13:09:29.902Z,101062.97
2018-09-17T13:11:58.158Z,101057.76
2018-09-17T13:14:26.373Z,101065.23
2018-09-17T13:16:54.606Z,101061.55
2018-09-17T13:19:22.840Z,101057.59
2018-09-17T13:21:51.078Z,101055.22
2018-09-17T13:24:19.302Z,101056.44
2018-09-17T13:26:47.573Z,101057.83
2018-09-17T13:29:15.784Z,101052.13
2018-09-17T13:31:44.021Z,101041.75
2018-09-17T13:34:12.245Z,101048.85
2018-09-17T13:36:40.478Z,101040.23
2018-09-17T13:39:08.710Z,101046.58
2018-09-17T13:41:36.957Z,101036.26
2018-09-17T13:44:05.257Z,101035.16
2018-09-17T13:46:33.471Z,101031.22
2018-09-17T13:49:01.761Z,101032.41
2018-09-17T13:51:29.891Z,101028.75
2018-09-17T13:53:58.163Z,101025.58
2018-09-17T13:56:26.452Z,101011.36
2018-09-17T13:58:54.667Z,101019.70
2018-09-17T14:01:22.874Z,101012.78
2018-09-17T14:03:51.103Z,101010.72
2018-09-17T14:06:19.396Z,101003.39
2018-09-17T14:08:47.612Z,100998.73
2018-09-17T14:11:15.889Z,100999.09
2018-09-17T14:13:44.105Z,100986.08
2018-09-17T14:16:12.373Z,100994.30
2018-09-17T14:18:41.703Z,100992.16
2018-09-17T14:21:09.921Z,100984.23
2018-09-17T14:23:38.256Z,100983.63
2018-09-17T14:26:07.598Z,100975.98
2018-09-17T14:28:35.752Z,100970.70
2018-09-17T14:31:03.980Z,100972.00
2018-09-17T14:33:38.201Z,100966.95
2018-09-17T14:36:06.430Z,100964.41
2018-09-17T14:38:34.669Z,100956.90
2018-09-17T14:41:02.892Z,100956.20
2018-09-17T14:43:31.131Z,100953.28
2018-09-17T14:45:59.806Z,100942.89
2018-09-17T14:48:27.937Z,100939.64
2018-09-17T14:50:56.180Z,100937.02
2018-09-17T14:53:24.449Z,100935.05
2018-09-17T14:55:52.654Z,100930.75
2018-09-17T14:58:21.025Z,100934.70
2018-09-17T15:00:49.270Z,100930.86
2018-09-17T15:03:17.485Z,100930.75
2018-09-17T15:05:45.812Z,100921.30
2018-09-17T15:08:14.127Z,100928.58
2018-09-17T15:10:42.265Z,100924.80
2018-09-17T15:13:10.531Z,100920.48
2018-09-17T15:15:44.150Z,100920.91
2018-09-17T15:18:13.844Z,100918.33
2018-09-17T15:20:42.118Z,100913.52
2018-09-17T15:23:10.558Z,100917.45
2018-09-17T15:25:39.035Z,100918.65
2018-09-17T15:28:07.630Z,100912.11
2018-09-17T15:30:38.167Z,100913.92
2018-09-17T15:33:06.605Z,100906.77
2018-09-17T15:35:34.878Z,100904.74
2018-09-17T15:38:03.164Z,100900.05
2018-09-17T15:40:31.576Z,100906.52
2018-09-17T15:42:59.759Z,100902.34
2018-09-17T15:45:28.085Z,100898.45
2018-09-17T15:47:56.305Z,100894.92
2018-09-17T15:50:25.554Z,100893.42
2018-09-17T15:52:53.835Z,100888.08
2018-09-17T15:55:22.138Z,100887.08
2018-09-17T15:57:50.560Z,100886.16
2018-09-17T16:00:18.806Z,100881.36
2018-09-17T16:02:47.187Z,100883.08
2018-09-17T16:05:16.437Z,100879.26
2018-09-17T16:07:44.735Z,100882.66
2018-09-17T16:10:14.656Z,100881.80
2018-09-17T16:12:44.096Z,100883.39
2018-09-17T16:15:13.714Z,100880.73
2018-09-17T16:17:42.645Z,100882.32
2018-09-17T16:20:10.963Z,100878.09
2018-09-17T16:22:40.248Z,100880.55
2018-09-17T16:25:15.534Z,100882.91
2018-09-17T16:27:45.009Z,100884.51
2018-09-17T16:30:14.620Z,100883.07
2018-09-17T16:32:42.821Z,100881.89
2018-09-17T16:35:11.050Z,100882.84
2018-09-17T16:37:39.445Z,100884.87
2018-09-17T16:40:08.830Z,100872.25
2018-09-17T16:42:37.186Z,100878.56
2018-09-17T16:45:13.256Z,100880.00
2018-09-17T16:47:41.830Z,100874.37
2018-09-17T16:50:11.977Z,100871.53
2018-09-17T16:52:40.219Z,100873.27
2018-09-17T16:55:08.542Z,100877.11
2018-09-17T16:57:36.791Z,100873.70
2018-09-17T17:00:05.122Z,100879.50
2018-09-17T17:02:33.329Z,100883.21
2018-09-17T17:05:01.757Z,100881.30
2018-09-17T17:07:29.953Z,100883.42
2018-09-17T17:09:58.243Z,100884.95
2018-09-17T17:12:27.025Z,100878.67
2018-09-17T17:14:55.266Z,100882.27
2018-09-17T17:17:23.506Z,100883.19
2018-09-17T17:19:52.265Z,100885.62
2018-09-17T17:22:21.217Z,100883.81
2018-09-17T17:24:49.880Z,100878.48
2018-09-17T17:27:19.656Z,100880.94
2018-09-17T17:29:48.358Z,100881.18
2018-09-17T17:32:16.928Z,100886.47
2018-09-17T17:34:45.712Z,100883.90
2018-09-17T17:37:14.445Z,100879.69
2018-09-17T17:39:43.224Z,100879.84
2018-09-17T17:42:11.410Z,100882.50
2018-09-17T17:44:39.781Z,100885.30
2018-09-17T17:47:07.994Z,100879.34
2018-09-17T17:49:36.229Z,100878.25
2018-09-17T17:52:04.558Z,100868.30
2018-09-17T17:54:32.884Z,100876.08
2018-09-17T17:57:00.994Z,100881.30
2018-09-17T17:59:29.285Z,100884.03
2018-09-17T18:01:57.531Z,100878.36
2018-09-17T18:04:25.928Z,100881.82
2018-09-17T18:06:54.027Z,100886.28
2018-09-17T18:09:22.415Z,100884.35
2018-09-17T18:11:52.590Z,100884.05
2018-09-17T18:14:20.828Z,100888.42
2018-09-17T18:16:49.070Z,100887.86
2018-09-17T18:19:17.445Z,100882.29
2018-09-17T18:21:45.807Z,100885.18
2018-09-17T18:24:14.021Z,100888.28
2018-09-17T18:26:42.400Z,100885.50
2018-09-17T18:29:10.614Z,100889.38
2018-09-17T18:31:38.833Z,100884.08
2018-09-17T18:34:07.383Z,100884.27
2018-09-17T18:36:35.667Z,100887.14
2018-09-17T18:39:04.679Z,100874.13
2018-09-17T18:41:33.022Z,100881.08
2018-09-17T18:44:01.321Z,100886.01
2018-09-17T18:46:29.611Z,100879.24
2018-09-17T18:48:57.830Z,100882.95
2018-09-17T18:51:26.095Z,100894.64
2018-09-17T18:53:54.351Z,100890.22
2018-09-17T18:56:22.796Z,100896.77
2018-09-17T18:58:51.025Z,100885.17
2018-09-17T19:01:19.249Z,100885.81
2018-09-17T19:03:47.523Z,100882.94
2018-09-17T19:06:15.748Z,100884.86
2018-09-17T19:08:46.113Z,100886.20
2018-09-17T19:11:14.357Z,100886.48
2018-09-17T19:13:46.717Z,100890.63
2018-09-17T19:16:14.977Z,100884.17
2018-09-17T19:18:43.440Z,100888.55
2018-09-17T19:21:11.884Z,100879.72
2018-09-17T19:23:45.315Z,100881.16
2018-09-17T19:26:13.592Z,100879.70
2018-09-17T19:29:44.767Z,100886.62
2018-09-17T19:32:13.096Z,100890.71
2018-09-17T19:34:41.210Z,100890.97
2018-09-17T19:37:15.610Z,100892.70
2018-09-17T19:39:49.198Z,100889.78
2018-09-17T19:42:17.468Z,100885.83
2018-09-17T19:44:50.801Z,100892.39
2018-09-17T19:47:19.015Z,100897.16
2018-09-17T19:49:47.287Z,100889.17
2018-09-17T19:52:19.285Z,100892.20
2018-09-17T19:54:48.075Z,100891.92
2018-09-17T19:57:21.526Z,100899.19
2018-09-17T19:59:54.094Z,100899.40
2018-09-17T20:02:22.677Z,100894.33
2018-09-17T20:04:56.214Z,100895.44
2018-09-17T20:07:25.701Z,100889.49
2018-09-17T20:09:54.323Z,100890.19
2018-09-17T20:12:23.810Z,100888.39
2018-09-17T20:14:52.125Z,100885.41
2018-09-17T20:17:20.615Z,100887.53
2018-09-17T20:19:48.851Z,100892.20
2018-09-17T20:22:19.077Z,100898.90
2018-09-17T20:24:48.977Z,100897.47
2018-09-17T20:27:18.059Z,100896.03
2018-09-17T20:29:47.169Z,100901.42
2018-09-17T20:32:16.807Z,100897.95
2018-09-17T20:34:47.038Z,100892.09
2018-09-17T20:37:16.682Z,100894.19
2018-09-17T20:39:46.877Z,100889.25
2018-09-17T20:42:15.994Z,100891.34
2018-09-17T20:44:45.560Z,100887.46
2018-09-17T20:47:14.725Z,100891.11
2018-09-17T20:49:43.929Z,100881.55
2018-09-17T20:52:13.129Z,100882.83
2018-09-17T20:54:42.384Z,100878.23
2018-09-17T20:57:11.727Z,100882.19
2018-09-17T20:59:39.956Z,100878.53
2018-09-17T21:02:08.199Z,100876.31
2018-09-17T21:04:36.514Z,100880.08
2018-09-17T21:07:04.906Z,100879.89
2018-09-17T21:09:33.154Z,100880.38
2018-09-17T21:12:01.600Z,100878.23
2018-09-17T21:14:29.833Z,100876.35
2018-09-17T21:16:58.043Z,100872.31
2018-09-17T21:19:26.354Z,100875.90
2018-09-17T21:21:54.543Z,100872.89
2018-09-17T21:24:22.715Z,100872.78
2018-09-17T21:26:50.940Z,100873.11
2018-09-17T21:29:19.183Z,100862.16
2018-09-17T21:31:47.455Z,100862.31
2018-09-17T21:34:15.763Z,100862.48
2018-09-17T21:36:44.013Z,100859.44
2018-09-17T21:39:14.640Z,100861.78
2018-09-17T21:41:42.866Z,100857.33
2018-09-17T21:44:11.113Z,100859.44
2018-09-17T21:46:39.491Z,100862.37
2018-09-17T21:49:07.778Z,100859.36
2018-09-17T21:51:36.026Z,100854.72
2018-09-17T21:54:04.267Z,100851.34
2018-09-17T21:56:32.498Z,100850.89
2018-09-17T21:59:00.723Z,100852.38
2018-09-17T22:01:29.009Z,100845.32
2018-09-17T22:03:57.270Z,100846.53
2018-09-17T22:06:25.517Z,100852.98
2018-09-17T22:08:53.736Z,100853.22
2018-09-17T22:11:22.090Z,100846.70
2018-09-17T22:13:50.367Z,100843.68
2018-09-17T22:16:18.742Z,100852.18
2018-09-17T22:18:47.018Z,100849.93
2018-09-17T22:21:15.240Z,100847.40
2018-09-17T22:23:43.517Z,100841.34
2018-09-17T22:26:11.756Z,100836.53
2018-09-17T22:28:40.061Z,100832.61
2018-09-17T22:31:08.379Z,100832.92
2018-09-17T22:33:36.636Z,100834.02
2018-09-17T22:36:04.914Z,100825.89
2018-09-17T22:38:33.127Z,100823.70
2018-09-17T22:41:01.373Z,100828.76
2018-09-17T22:43:29.605Z,100829.11
2018-09-17T22:45:57.874Z,100831.62
2018-09-17T22:48:26.131Z,100831.08
2018-09-17T22:50:54.362Z,100832.01
2018-09-17T22:53:22.805Z,100829.33
2018-09-17T22:55:51.054Z,100834.42
2018-09-17T22:58:19.265Z,100824.58
2018-09-17T23:00:47.503Z,100828.20
2018-09-17T23:03:15.742Z,100822.87
2018-09-17T23:05:43.954Z,100828.39
2018-09-17T23:08:12.196Z,100821.00
2018-09-17T23:10:40.403Z,100820.75
2018-09-17T23:13:08.650Z,100816.11
2018-09-17T23:15:36.866Z,100818.10
2018-09-17T23:18:05.142Z,100821.00
2018-09-17T23:20:33.341Z,100821.83
2018-09-17T23:23:01.632Z,100815.45
2018-09-17T23:25:29.869Z,100818.52
2018-09-17T23:27:58.083Z,100822.95
2018-09-17T23:30:26.305Z,100821.37
2018-09-17T23:32:54.510Z,100814.91
2018-09-17T23:35:22.721Z,100811.73
2018-09-17T23:37:50.943Z,100806.80
2018-09-17T23:40:19.185Z,100803.65
2018-09-17T23:42:47.393Z,100805.66
2018-09-17T23:45:15.686Z,100798.14
2018-09-17T23:47:43.917Z,100796.09
2018-09-17T23:50:12.130Z,100801.00
2018-09-17T23:52:40.361Z,100792.63
2018-09-17T23:55:08.581Z,100801.37
2018-09-17T23:57:36.827Z,100796.95
